Ana Sayfa
METAR-TAF:

METAR-TAF

Havaalanları :

Stuttgart Municipal Airport

Stuttgart, Arkansas, Amerika Birleşik Devletleri

Enlem: 34-36N, Boylam: 091-34W, yükseklik: 68 m

Güncel hava durumu gözlemi

Rapor saat 11:56 UTC de 17 dakika önce yapıldı.
Rüzgar güney/güneydoğudan 7 kt
Sıcaklık 21°C
Nem 100%
Basınç 1013 hPa
2700 ft yükseklikte az bulutlu
3500 ft yükseklikte parçalı bulutlu
4900 ft yükseklikte parçalı çok bulutlu
civarda gök gürültülü fırtına

METAR: KSGT 231156Z AUTO 15007KT VCTS FEW027 SCT035 BKN049 21/21 A2991 RMK AO2 LTG DSNT ALQDS TSB38 SLP128 P0002 60002 70050 T02110206 10222 20206 53009 PWINO RVRNO $

Saat: 07:13 (12:13 UTC)


TAF: eksik

4.000'den fazla havaalanı için hava durumu gözlemleri ve tahminleri (METAR ve TAF raporları).

Kullanılabilir istasyonlar harita üzerinde sarı ve kırmızı noktalarla gösterilir.

İstasyonun adını görmek için fareyi noktanın üzerinde gezdirin.

Sonrasında hava gözlem ve tahminlerini görmek için tıklayın.

Haritayı değiştirmek için: yaklaştırmak için siyah artı işaretli yeşil düğmeye ve uzaklaştırmak için de eksi işaretli düğmeye hızla tıklayın; bitişik haritalar için yeşil okları kullanın.


METAR-TAF: